createdAt,value
2018-03-04T00:00:24.360Z,0.00
2018-03-04T00:01:22.200Z,0.00
2018-03-04T00:02:22.767Z,0.00
2018-03-04T00:03:20.455Z,0.00
2018-03-04T00:04:24.775Z,0.00
2018-03-04T00:05:22.452Z,0.00
2018-03-04T00:06:48.976Z,0.00
2018-03-04T00:07:47.735Z,0.00
2018-03-04T00:08:46.594Z,0.00
2018-03-04T00:09:48.592Z,0.00
2018-03-04T00:10:47.887Z,0.00
2018-03-04T00:11:45.929Z,0.00
2018-03-04T00:13:11.265Z,0.00
2018-03-04T00:14:15.057Z,0.00
2018-03-04T00:15:12.249Z,0.00
2018-03-04T00:16:37.392Z,0.00
2018-03-04T00:17:34.347Z,0.00
2018-03-04T00:18:34.074Z,0.00
2018-03-04T00:19:59.017Z,0.00
2018-03-04T00:20:58.417Z,0.00
2018-03-04T00:22:00.680Z,0.00
2018-03-04T00:23:02.162Z,0.00
2018-03-04T00:23:58.823Z,0.00
2018-03-04T00:25:03.186Z,0.00
2018-03-04T00:25:58.858Z,0.00
2018-03-04T00:27:00.439Z,0.00
2018-03-04T00:28:01.136Z,0.00
2018-03-04T00:29:01.662Z,0.00
2018-03-04T00:30:07.703Z,0.00
2018-03-04T00:31:30.203Z,0.00
2018-03-04T00:32:26.402Z,0.00
2018-03-04T00:33:28.317Z,0.00
2018-03-04T00:34:33.893Z,0.00
2018-03-04T00:35:27.967Z,0.00
2018-03-04T00:36:35.920Z,0.00
2018-03-04T00:37:28.799Z,0.00
2018-03-04T00:38:27.870Z,0.00
2018-03-04T00:39:31.271Z,0.00
2018-03-04T00:40:27.241Z,0.00
2018-03-04T00:41:54.890Z,0.00
2018-03-04T00:42:52.132Z,0.00
2018-03-04T00:43:58.607Z,0.00
2018-03-04T00:44:56.124Z,0.00
2018-03-04T00:45:56.026Z,0.00
2018-03-04T00:46:54.572Z,0.00
2018-03-04T00:48:27.322Z,0.00
2018-03-04T00:49:30.715Z,0.00
2018-03-04T00:50:26.102Z,0.00
2018-03-04T00:51:26.451Z,0.00
2018-03-04T00:52:25.345Z,0.00
2018-03-04T00:53:24.639Z,0.00
2018-03-04T00:54:27.536Z,0.00
2018-03-04T00:55:56.287Z,0.00
2018-03-04T00:56:56.424Z,0.00
2018-03-04T00:57:52.312Z,0.00
2018-03-04T00:58:55.242Z,0.00
2018-03-04T00:59:50.587Z,0.00
2018-03-04T01:01:20.750Z,0.00
2018-03-04T01:02:23.159Z,0.00
2018-03-04T01:03:22.876Z,0.00
2018-03-04T01:04:22.797Z,0.00
2018-03-04T01:05:23.016Z,0.00
2018-03-04T01:06:21.040Z,0.00
2018-03-04T01:07:21.971Z,0.00
2018-03-04T01:08:24.552Z,0.00
2018-03-04T01:09:20.912Z,0.00
2018-03-04T01:10:22.212Z,0.00
2018-03-04T01:11:18.741Z,0.00
2018-03-04T01:12:21.988Z,0.00
2018-03-04T01:13:28.204Z,0.00
2018-03-04T01:14:22.429Z,0.00
2018-03-04T01:15:23.045Z,0.00
2018-03-04T01:17:02.439Z,0.00
2018-03-04T01:17:53.367Z,0.00
2018-03-04T01:18:57.453Z,0.00
2018-03-04T01:19:54.630Z,0.00
2018-03-04T01:20:56.672Z,0.00
2018-03-04T01:21:59.275Z,0.00
2018-03-04T01:22:53.920Z,0.00
2018-03-04T01:23:53.756Z,0.00
2018-03-04T01:24:56.017Z,0.00
2018-03-04T01:25:55.531Z,0.00
2018-03-04T01:26:52.860Z,0.00
2018-03-04T01:27:58.564Z,0.00
2018-03-04T01:28:48.973Z,0.00
2018-03-04T01:29:53.802Z,0.00
2018-03-04T01:30:50.830Z,0.00
2018-03-04T01:32:12.141Z,0.00
2018-03-04T01:33:18.593Z,0.00
2018-03-04T01:34:18.354Z,0.00
2018-03-04T01:35:18.021Z,0.00
2018-03-04T01:36:14.665Z,0.00
2018-03-04T01:37:14.747Z,0.00
2018-03-04T01:38:12.977Z,0.00
2018-03-04T01:39:16.080Z,0.00
2018-03-04T01:40:13.449Z,0.00
2018-03-04T01:41:14.067Z,0.00
2018-03-04T01:42:22.287Z,0.00
2018-03-04T01:43:15.117Z,0.00
2018-03-04T01:44:14.156Z,0.00
2018-03-04T01:45:13.234Z,0.00
2018-03-04T01:46:12.518Z,0.00
2018-03-04T01:47:17.339Z,0.00
2018-03-04T01:48:12.948Z,0.00
2018-03-04T01:49:38.470Z,0.00
2018-03-04T01:51:10.885Z,0.00
2018-03-04T01:52:11.220Z,0.00
2018-03-04T01:53:13.392Z,0.00
2018-03-04T01:54:12.231Z,0.00
2018-03-04T01:55:11.680Z,0.00
2018-03-04T01:56:09.815Z,0.00
2018-03-04T01:57:08.137Z,0.00
2018-03-04T01:58:12.636Z,0.00
2018-03-04T01:59:12.255Z,0.00
2018-03-04T02:00:13.948Z,0.00
2018-03-04T02:01:09.297Z,0.00
2018-03-04T02:02:12.732Z,0.00
2018-03-04T02:03:38.151Z,0.00
2018-03-04T02:04:35.154Z,0.00
2018-03-04T02:05:34.673Z,0.00
2018-03-04T02:06:35.658Z,0.00
2018-03-04T02:07:39.828Z,0.00
2018-03-04T02:08:39.599Z,0.00
2018-03-04T02:10:05.991Z,0.00
2018-03-04T02:10:58.292Z,0.00
2018-03-04T02:11:58.643Z,0.00
2018-03-04T02:13:02.314Z,0.00
2018-03-04T02:13:57.973Z,0.00
2018-03-04T02:14:54.903Z,0.00
2018-03-04T02:15:56.713Z,0.00
2018-03-04T02:16:54.610Z,0.00
2018-03-04T02:18:26.430Z,0.00
2018-03-04T02:19:32.680Z,0.00
2018-03-04T02:20:32.507Z,0.00
2018-03-04T02:21:35.869Z,0.00
2018-03-04T02:23:19.381Z,0.00
2018-03-04T02:24:11.023Z,0.00
2018-03-04T02:25:14.470Z,0.00
2018-03-04T02:26:12.739Z,0.00
2018-03-04T02:27:14.207Z,0.00
2018-03-04T02:28:09.959Z,0.00
2018-03-04T02:29:09.690Z,0.00
2018-03-04T02:30:06.997Z,0.00
2018-03-04T02:31:11.419Z,0.00
2018-03-04T02:32:25.810Z,0.00
2018-03-04T02:33:07.357Z,0.00
2018-03-04T02:34:16.593Z,0.00
2018-03-04T02:35:13.413Z,0.00
2018-03-04T02:37:20.750Z,0.00
2018-03-04T02:38:54.972Z,0.00
2018-03-04T02:39:48.093Z,0.00
2018-03-04T02:40:48.570Z,0.00
2018-03-04T02:41:57.597Z,0.00
2018-03-04T02:42:48.209Z,0.00
2018-03-04T02:43:49.318Z,0.00
2018-03-04T02:44:49.404Z,0.00
2018-03-04T02:45:51.479Z,0.00
2018-03-04T02:46:46.558Z,0.00
2018-03-04T02:47:52.348Z,0.00
2018-03-04T02:48:49.906Z,0.00
2018-03-04T02:50:21.111Z,0.00
2018-03-04T02:51:13.788Z,0.00
2018-03-04T02:52:22.238Z,0.00
2018-03-04T02:53:14.739Z,0.00
2018-03-04T02:54:23.937Z,0.00
2018-03-04T02:55:13.855Z,0.00
2018-03-04T02:56:11.950Z,0.00
2018-03-04T02:57:18.446Z,0.00
2018-03-04T02:58:14.590Z,0.00
2018-03-04T02:59:19.858Z,0.00
2018-03-04T03:00:14.659Z,0.00
2018-03-04T03:01:17.253Z,0.00
2018-03-04T03:02:12.662Z,0.00
2018-03-04T03:03:14.443Z,0.00
2018-03-04T03:04:13.320Z,0.00
2018-03-04T03:05:17.521Z,0.00
2018-03-04T03:06:40.810Z,0.00
2018-03-04T03:07:41.294Z,0.00
2018-03-04T03:08:46.425Z,0.00
2018-03-04T03:09:43.523Z,0.00
2018-03-04T03:11:07.723Z,0.00
2018-03-04T03:12:04.496Z,0.00
2018-03-04T03:13:11.671Z,0.00
2018-03-04T03:14:09.606Z,0.00
2018-03-04T03:15:12.133Z,0.00
2018-03-04T03:16:10.032Z,0.00
2018-03-04T03:17:06.989Z,0.00
2018-03-04T03:18:15.800Z,0.00
2018-03-04T03:19:15.239Z,0.00
2018-03-04T03:21:45.883Z,0.00
2018-03-04T03:23:14.457Z,0.00
2018-03-04T03:24:11.811Z,0.00
2018-03-04T03:25:18.354Z,0.00
2018-03-04T03:26:13.205Z,0.00
2018-03-04T03:27:14.456Z,0.00
2018-03-04T03:28:18.325Z,0.00
2018-03-04T03:29:27.914Z,0.00
2018-03-04T03:30:19.839Z,0.00
2018-03-04T03:31:21.066Z,0.00
2018-03-04T03:32:25.857Z,0.00
2018-03-04T03:33:45.531Z,0.00
2018-03-04T03:35:59.618Z,0.00
2018-03-04T03:36:55.402Z,0.00
2018-03-04T03:37:51.527Z,0.00
2018-03-04T03:38:50.719Z,0.00
2018-03-04T03:39:48.854Z,0.00
2018-03-04T03:41:01.700Z,0.00
2018-03-04T03:41:53.885Z,0.00
2018-03-04T03:42:49.537Z,0.00
2018-03-04T03:43:54.139Z,0.00
2018-03-04T03:44:52.275Z,0.00
2018-03-04T03:46:18.145Z,0.00
2018-03-04T03:47:44.318Z,0.00
2018-03-04T03:48:57.516Z,0.00
2018-03-04T03:49:48.365Z,0.00
2018-03-04T03:50:52.443Z,0.00
2018-03-04T03:51:49.927Z,0.00
2018-03-04T03:52:49.220Z,0.00
2018-03-04T03:53:53.075Z,0.00
2018-03-04T03:54:55.086Z,0.00
2018-03-04T03:55:51.268Z,0.00
2018-03-04T03:57:03.877Z,0.00
2018-03-04T03:57:40.493Z,0.00
2018-03-04T03:58:40.866Z,0.00
2018-03-04T03:59:41.969Z,0.00
2018-03-04T04:01:02.030Z,0.00
2018-03-04T04:02:02.832Z,0.00
2018-03-04T04:03:23.582Z,0.00
2018-03-04T04:04:24.424Z,0.00
2018-03-04T04:05:24.124Z,0.00
2018-03-04T04:07:08.547Z,0.00
2018-03-04T04:08:22.686Z,0.00
2018-03-04T04:09:09.070Z,0.00
2018-03-04T04:10:09.033Z,0.00
2018-03-04T04:11:31.443Z,0.00
2018-03-04T04:12:31.991Z,0.00
2018-03-04T04:13:31.903Z,0.00
2018-03-04T04:14:31.230Z,0.00
2018-03-04T04:15:32.012Z,0.00
2018-03-04T04:16:31.589Z,0.00
2018-03-04T04:17:32.441Z,0.00
2018-03-04T04:18:32.406Z,0.00
2018-03-04T04:19:32.417Z,0.00
2018-03-04T04:20:31.896Z,0.00
2018-03-04T04:21:31.732Z,0.00
2018-03-04T04:22:32.126Z,0.00
2018-03-04T04:23:53.741Z,0.00
2018-03-04T04:24:54.558Z,0.00
2018-03-04T04:25:54.226Z,0.00
2018-03-04T04:26:53.768Z,0.00
2018-03-04T04:27:54.164Z,0.00
2018-03-04T04:28:54.168Z,0.00
2018-03-04T04:29:53.779Z,0.00
2018-03-04T04:30:54.164Z,0.00
2018-03-04T04:31:53.665Z,0.00
2018-03-04T04:32:54.141Z,0.00
2018-03-04T04:33:53.597Z,0.00
2018-03-04T04:34:54.428Z,0.00
2018-03-04T04:35:53.902Z,0.00
2018-03-04T04:36:54.293Z,0.00
2018-03-04T04:37:53.870Z,0.00
2018-03-04T04:38:54.080Z,0.00
2018-03-04T04:39:53.533Z,0.00
2018-03-04T04:40:54.483Z,0.00
2018-03-04T04:41:54.220Z,0.00
2018-03-04T04:42:54.154Z,0.00
2018-03-04T04:43:53.654Z,0.00
2018-03-04T04:44:54.258Z,0.00
2018-03-04T04:45:54.158Z,0.00
2018-03-04T04:46:54.081Z,0.00
2018-03-04T04:47:54.095Z,0.00
2018-03-04T04:49:35.993Z,0.00
2018-03-04T04:50:36.515Z,0.00
2018-03-04T04:51:58.130Z,0.00
2018-03-04T04:52:58.706Z,0.00
2018-03-04T04:53:58.266Z,0.00
2018-03-04T04:54:59.030Z,0.00
2018-03-04T04:55:58.358Z,0.00
2018-03-04T04:57:19.066Z,0.00
2018-03-04T04:58:19.468Z,0.00
2018-03-04T04:59:20.231Z,0.00
2018-03-04T05:00:20.113Z,0.00
2018-03-04T05:01:19.497Z,0.00
2018-03-04T05:02:20.179Z,0.00
2018-03-04T05:03:20.375Z,0.00
2018-03-04T05:04:20.173Z,0.00
2018-03-04T05:05:19.899Z,0.00
2018-03-04T05:06:19.573Z,0.00
2018-03-04T05:07:20.430Z,0.00
2018-03-04T05:08:20.455Z,0.00
2018-03-04T05:09:19.700Z,0.00
2018-03-04T05:10:20.374Z,0.00
2018-03-04T05:11:41.434Z,0.00
2018-03-04T05:13:03.895Z,0.00
2018-03-04T05:14:04.734Z,0.00
2018-03-04T05:15:04.642Z,0.00
2018-03-04T05:16:04.481Z,0.00
2018-03-04T05:17:04.326Z,0.00
2018-03-04T05:18:04.158Z,0.00
2018-03-04T05:19:04.126Z,0.00
2018-03-04T05:20:04.016Z,0.00
2018-03-04T05:21:04.886Z,0.00
2018-03-04T05:22:04.727Z,0.00
2018-03-04T05:23:04.466Z,0.00
2018-03-04T05:24:25.627Z,0.00
2018-03-04T05:25:26.064Z,1.00
2018-03-04T05:26:46.998Z,0.00
2018-03-04T05:27:47.459Z,1.00
2018-03-04T05:28:46.781Z,1.00
2018-03-04T05:29:46.994Z,1.00
2018-03-04T05:30:47.318Z,0.00
2018-03-04T05:31:46.904Z,1.00
2018-03-04T05:32:47.283Z,1.00
2018-03-04T05:33:47.169Z,2.00
2018-03-04T05:34:46.639Z,2.00
2018-03-04T05:35:47.442Z,2.00
2018-03-04T05:37:29.613Z,3.00
2018-03-04T05:38:30.267Z,4.00
2018-03-04T05:39:30.228Z,3.00
2018-03-04T05:40:30.161Z,4.00
2018-03-04T05:41:29.497Z,5.00
2018-03-04T05:42:30.397Z,5.00
2018-03-04T05:43:51.079Z,6.00
2018-03-04T05:44:51.913Z,8.00
2018-03-04T05:46:13.154Z,10.00
2018-03-04T05:47:14.143Z,12.00
2018-03-04T05:48:44.034Z,15.00
2018-03-04T05:49:44.622Z,18.00
2018-03-04T05:50:44.679Z,21.00
2018-03-04T05:51:44.390Z,24.00
2018-03-04T05:52:44.127Z,27.00
2018-03-04T05:53:44.125Z,31.00
2018-03-04T05:54:44.422Z,36.00
2018-03-04T05:56:05.401Z,42.00
2018-03-04T05:57:05.977Z,48.00
2018-03-04T05:58:05.302Z,55.00
2018-03-04T05:59:05.727Z,61.00
2018-03-04T06:00:06.480Z,71.00
2018-03-04T06:01:06.120Z,79.00
2018-03-04T06:02:06.003Z,88.00
2018-03-04T06:03:27.511Z,102.00
2018-03-04T06:04:27.853Z,112.00
2018-03-04T06:05:27.264Z,122.00
2018-03-04T06:06:28.310Z,132.00
2018-03-04T06:07:28.256Z,142.00
2018-03-04T06:08:27.967Z,154.00
2018-03-04T06:09:27.857Z,166.00
2018-03-04T06:10:27.686Z,179.00
2018-03-04T06:11:28.149Z,192.00
2018-03-04T06:12:27.667Z,204.00
2018-03-04T06:13:28.546Z,215.00
2018-03-04T06:14:28.358Z,225.00
2018-03-04T06:15:28.155Z,236.00
2018-03-04T06:16:28.197Z,249.00
2018-03-04T06:17:27.768Z,262.00
2018-03-04T06:18:27.613Z,273.00
2018-03-04T06:19:28.408Z,285.00
2018-03-04T06:20:49.936Z,308.00
2018-03-04T06:21:50.683Z,329.00
2018-03-04T06:22:50.576Z,346.00
2018-03-04T06:23:50.455Z,366.00
2018-03-04T06:24:50.384Z,403.00
2018-03-04T06:25:50.212Z,453.00
2018-03-04T06:27:15.197Z,525.00
2018-03-04T06:28:12.754Z,573.00
2018-03-04T06:29:13.070Z,612.00
2018-03-04T06:30:14.368Z,635.00
2018-03-04T06:31:15.487Z,651.00
2018-03-04T06:32:14.717Z,678.00
2018-03-04T06:33:18.491Z,720.00
2018-03-04T06:34:13.283Z,774.00
2018-03-04T06:35:12.552Z,832.00
2018-03-04T06:36:35.809Z,902.00
2018-03-04T06:37:36.171Z,941.00
2018-03-04T06:39:19.775Z,1063.00
2018-03-04T06:40:18.327Z,1189.00
2018-03-04T06:41:39.137Z,1360.00
2018-03-04T06:42:39.926Z,1408.00
2018-03-04T06:43:39.449Z,1365.00
2018-03-04T06:44:39.907Z,1312.00
2018-03-04T06:45:39.433Z,1356.00
2018-03-04T06:47:02.190Z,1471.00
2018-03-04T06:48:24.407Z,1502.00
2018-03-04T06:49:24.856Z,1546.00
2018-03-04T06:50:27.710Z,1636.00
2018-03-04T06:51:25.304Z,1806.00
2018-03-04T06:52:48.899Z,2221.00
2018-03-04T06:53:50.092Z,2557.00
2018-03-04T06:54:48.969Z,2856.00
2018-03-04T06:55:50.601Z,3050.00
2018-03-04T06:56:48.724Z,3088.00
2018-03-04T06:57:48.559Z,3082.00
2018-03-04T06:58:49.172Z,3084.00
2018-03-04T06:59:49.192Z,3164.00
2018-03-04T07:01:33.320Z,3478.00
2018-03-04T07:02:34.321Z,3637.00
2018-03-04T07:03:33.720Z,3725.00
2018-03-04T07:04:34.941Z,3766.00
2018-03-04T07:05:35.780Z,3880.00
2018-03-04T07:06:33.835Z,4038.00
2018-03-04T07:07:33.972Z,4055.00
2018-03-04T07:08:33.779Z,3967.00
2018-03-04T07:09:33.927Z,4007.00
2018-03-04T07:10:56.705Z,4001.00
2018-03-04T07:11:57.480Z,3983.00
2018-03-04T07:12:56.935Z,4012.00
2018-03-04T07:13:57.117Z,4010.00
2018-03-04T07:14:56.977Z,3899.00
2018-03-04T07:15:56.569Z,3559.00
2018-03-04T07:17:19.266Z,3074.00
2018-03-04T07:18:19.005Z,2862.00
2018-03-04T07:19:18.860Z,2846.00
2018-03-04T07:20:21.038Z,3009.00
2018-03-04T07:21:18.859Z,3117.00
2018-03-04T07:22:20.223Z,3215.00
2018-03-04T07:23:19.549Z,3433.00
2018-03-04T07:24:19.350Z,3694.00
2018-03-04T07:25:18.939Z,3890.00
2018-03-04T07:26:20.074Z,4031.00
2018-03-04T07:27:19.779Z,4207.00
2018-03-04T07:28:19.680Z,4440.00
2018-03-04T07:29:20.788Z,4891.00
2018-03-04T07:30:19.468Z,5525.00
2018-03-04T07:31:19.655Z,6177.00
2018-03-04T07:32:20.056Z,6458.00
2018-03-04T07:33:19.126Z,6476.00
2018-03-04T07:34:19.155Z,6691.00
2018-03-04T07:35:19.806Z,7227.00
2018-03-04T07:36:18.834Z,7703.00
2018-03-04T07:37:18.567Z,8048.00
2018-03-04T07:38:20.195Z,8311.00
2018-03-04T07:39:19.763Z,8491.00
2018-03-04T07:40:18.929Z,8518.00
2018-03-04T07:41:18.534Z,8573.00
2018-03-04T07:42:20.456Z,8786.00
2018-03-04T07:43:20.254Z,9154.00
2018-03-04T07:44:18.562Z,9443.00
2018-03-04T07:45:19.533Z,9552.00
2018-03-04T07:46:19.534Z,9462.00
2018-03-04T07:47:19.661Z,9437.00
2018-03-04T07:48:18.587Z,9614.00
2018-03-04T07:49:18.925Z,9928.00
2018-03-04T07:50:19.122Z,10274.00
2018-03-04T07:51:18.578Z,10595.00
2018-03-04T07:52:20.614Z,10813.00
2018-03-04T07:53:19.668Z,10970.00
2018-03-04T07:54:19.540Z,11167.00
2018-03-04T07:55:20.569Z,11369.00
2018-03-04T07:56:22.595Z,11640.00
2018-03-04T07:57:19.385Z,12015.00
2018-03-04T07:58:19.211Z,12291.00
2018-03-04T07:59:20.174Z,12393.00
2018-03-04T08:00:20.556Z,12634.00
2018-03-04T08:01:19.485Z,12957.00
2018-03-04T08:03:04.206Z,13124.00
2018-03-04T08:04:04.622Z,12935.00
2018-03-04T08:05:04.378Z,12104.00
2018-03-04T08:06:03.957Z,11291.00
2018-03-04T08:07:06.369Z,10878.00
2018-03-04T08:08:48.202Z,10838.00
2018-03-04T08:09:50.254Z,10809.00
2018-03-04T08:11:10.885Z,10675.00
2018-03-04T08:12:10.777Z,10548.00
2018-03-04T08:13:10.796Z,10399.00
2018-03-04T08:14:10.288Z,10257.00
2018-03-04T08:15:11.513Z,10245.00
2018-03-04T08:16:12.016Z,10443.00
2018-03-04T08:17:32.452Z,11338.00
2018-03-04T08:18:32.981Z,12340.00
2018-03-04T08:19:32.597Z,13345.00
2018-03-04T08:20:33.186Z,14343.00
2018-03-04T08:21:32.655Z,14726.00
2018-03-04T08:24:02.193Z,13770.00
2018-03-04T08:25:03.106Z,13585.00
2018-03-04T08:26:02.897Z,13461.00
2018-03-04T08:27:02.902Z,13518.00
2018-03-04T08:28:02.432Z,13657.00
2018-03-04T08:29:02.581Z,13572.00
2018-03-04T08:30:02.738Z,13422.00
2018-03-04T08:31:04.477Z,13603.00
2018-03-04T08:32:02.906Z,13813.00
2018-03-04T08:33:03.181Z,13942.00
2018-03-04T08:34:03.094Z,14096.00
2018-03-04T08:35:03.318Z,14602.00
2018-03-04T08:36:13.866Z,14939.00
2018-03-04T08:37:02.631Z,14770.00
2018-03-04T08:38:03.509Z,14500.00
2018-03-04T08:39:49.823Z,14153.00
2018-03-04T08:40:52.395Z,14194.00
2018-03-04T08:41:57.170Z,14558.00
2018-03-04T08:42:52.191Z,15291.00
2018-03-04T08:43:49.742Z,15800.00
2018-03-04T08:44:51.368Z,15989.00
2018-03-04T08:45:49.547Z,16469.00
2018-03-04T08:46:49.977Z,17264.00
2018-03-04T08:47:51.507Z,17736.00
2018-03-04T08:48:51.168Z,17752.00
2018-03-04T08:49:49.310Z,17408.00
2018-03-04T08:51:40.080Z,16305.00
2018-03-04T08:52:39.600Z,16840.00
2018-03-04T08:53:41.743Z,17408.00
2018-03-04T08:55:04.691Z,17720.00
2018-03-04T08:56:05.536Z,17712.00
2018-03-04T08:57:03.225Z,17632.00
2018-03-04T08:58:22.767Z,17224.00
2018-03-04T08:59:43.909Z,18184.00
2018-03-04T09:00:45.045Z,20000.00
2018-03-04T09:02:06.779Z,20888.00
2018-03-04T09:03:31.858Z,20776.00
2018-03-04T09:04:52.545Z,19736.00
2018-03-04T09:05:52.374Z,19032.00
2018-03-04T09:07:20.337Z,18576.00
2018-03-04T09:07:54.121Z,18464.00
2018-03-04T09:08:55.303Z,18296.00
2018-03-04T09:10:15.559Z,18776.00
2018-03-04T09:11:16.022Z,19776.00
2018-03-04T09:12:38.473Z,20048.00
2018-03-04T09:14:01.296Z,20344.00
2018-03-04T09:15:01.460Z,20264.00
2018-03-04T09:16:01.925Z,19824.00
2018-03-04T09:17:00.643Z,20240.00
2018-03-04T09:18:23.539Z,20744.00
2018-03-04T09:19:24.093Z,20808.00
2018-03-04T09:20:23.160Z,20624.00
2018-03-04T09:21:22.829Z,19528.00
2018-03-04T09:22:46.069Z,18536.00
2018-03-04T09:24:11.624Z,18496.00
2018-03-04T09:25:11.967Z,19000.00
2018-03-04T09:26:36.065Z,19576.00
2018-03-04T09:27:34.757Z,20048.00
2018-03-04T09:28:35.673Z,20784.00
2018-03-04T09:29:34.780Z,21208.00
2018-03-04T09:30:33.818Z,21240.00
2018-03-04T09:31:58.841Z,20216.00
2018-03-04T09:33:08.503Z,18840.00
2018-03-04T09:33:58.608Z,17920.00
2018-03-04T09:34:58.893Z,17608.00
2018-03-04T09:35:57.780Z,17584.00
2018-03-04T09:36:59.880Z,17584.00
2018-03-04T09:37:58.957Z,17528.00
2018-03-04T09:38:58.774Z,17696.00
2018-03-04T09:39:58.958Z,18096.00
2018-03-04T09:40:58.216Z,18776.00
2018-03-04T09:41:57.982Z,19360.00
2018-03-04T09:42:58.105Z,19512.00
2018-03-04T09:43:57.842Z,19104.00
2018-03-04T09:44:59.921Z,18912.00
2018-03-04T09:46:01.931Z,19168.00
2018-03-04T09:47:20.699Z,18912.00
2018-03-04T09:48:22.131Z,18544.00
2018-03-04T09:49:21.426Z,18296.00
2018-03-04T09:50:21.404Z,18200.00
2018-03-04T09:51:42.138Z,18816.00
2018-03-04T09:52:42.358Z,19848.00
2018-03-04T09:53:43.214Z,21024.00
2018-03-04T09:54:42.187Z,21848.00
2018-03-04T09:55:43.216Z,22896.00
2018-03-04T09:56:42.272Z,24224.00
2018-03-04T09:57:42.500Z,25160.00
2018-03-04T09:58:43.436Z,25536.00
2018-03-04T09:59:42.303Z,25744.00
2018-03-04T10:00:42.427Z,25576.00
2018-03-04T10:01:42.687Z,25304.00
2018-03-04T10:02:43.556Z,24984.00
2018-03-04T10:03:42.809Z,24600.00
2018-03-04T10:04:42.613Z,23984.00
2018-03-04T10:05:42.573Z,23192.00
2018-03-04T10:06:42.796Z,22320.00
2018-03-04T10:07:44.516Z,21584.00
2018-03-04T10:08:42.625Z,21136.00
2018-03-04T10:09:43.530Z,20688.00
2018-03-04T10:10:42.330Z,20056.00
2018-03-04T10:11:43.142Z,19792.00
2018-03-04T10:12:42.194Z,20336.00
2018-03-04T10:13:43.067Z,21536.00
2018-03-04T10:14:41.812Z,22456.00
2018-03-04T10:15:43.021Z,23424.00
2018-03-04T10:16:42.196Z,24464.00
2018-03-04T10:17:41.900Z,25384.00
2018-03-04T10:18:43.179Z,26504.00
2018-03-04T10:19:43.221Z,29480.00
2018-03-04T10:20:42.359Z,30648.00
2018-03-04T10:21:42.051Z,27288.00
2018-03-04T10:22:41.988Z,27144.00
2018-03-04T10:23:43.643Z,27664.00
2018-03-04T10:25:05.207Z,28208.00
2018-03-04T10:26:06.856Z,29664.00
2018-03-04T10:27:06.426Z,29568.00
2018-03-04T10:28:11.646Z,29472.00
2018-03-04T10:29:06.032Z,28296.00
2018-03-04T10:30:06.020Z,27968.00
2018-03-04T10:31:06.152Z,25072.00
2018-03-04T10:32:06.341Z,23136.00
2018-03-04T10:33:05.766Z,21536.00
2018-03-04T10:34:06.029Z,21048.00
2018-03-04T10:35:07.418Z,22640.00
2018-03-04T10:36:04.954Z,25112.00
2018-03-04T10:37:10.463Z,26728.00
2018-03-04T10:38:05.925Z,25200.00
2018-03-04T10:39:28.445Z,23128.00
2018-03-04T10:40:29.498Z,22640.00
2018-03-04T10:41:50.483Z,22648.00
2018-03-04T10:42:51.326Z,22824.00
2018-03-04T10:43:51.509Z,23288.00
2018-03-04T10:45:57.461Z,24768.00
2018-03-04T10:46:58.291Z,24200.00
2018-03-04T10:47:58.840Z,23240.00
2018-03-04T10:48:58.780Z,21168.00
2018-03-04T10:49:58.141Z,19096.00
2018-03-04T10:50:59.007Z,18664.00
2018-03-04T10:51:58.541Z,21040.00
2018-03-04T10:52:57.787Z,25760.00
2018-03-04T10:54:02.013Z,31176.00
2018-03-04T10:54:58.173Z,31216.00
2018-03-04T10:55:58.823Z,25656.00
2018-03-04T10:56:58.246Z,20968.00
2018-03-04T10:57:57.950Z,18888.00
2018-03-04T10:58:57.987Z,18320.00
2018-03-04T11:00:00.190Z,18272.00
2018-03-04T11:00:57.443Z,19000.00
2018-03-04T11:01:59.086Z,21176.00
2018-03-04T11:03:19.709Z,23928.00
2018-03-04T11:04:43.377Z,20544.00
2018-03-04T11:05:45.913Z,17640.00
2018-03-04T11:06:46.262Z,15888.00
2018-03-04T11:07:43.239Z,15443.00
2018-03-04T11:08:44.030Z,16064.00
2018-03-04T11:09:43.847Z,18488.00
2018-03-04T11:10:42.879Z,22832.00
2018-03-04T11:11:43.081Z,25136.00
2018-03-04T11:12:43.104Z,24512.00
2018-03-04T11:13:43.064Z,24520.00
2018-03-04T11:14:42.637Z,25344.00
2018-03-04T11:15:43.560Z,26640.00
2018-03-04T11:16:43.100Z,27888.00
2018-03-04T11:17:51.146Z,28792.00
2018-03-04T11:18:48.660Z,29024.00
2018-03-04T11:19:46.803Z,29064.00
2018-03-04T11:20:44.499Z,29512.00
2018-03-04T11:21:44.556Z,30328.00
2018-03-04T11:23:07.262Z,30728.00
2018-03-04T11:24:33.688Z,28904.00
2018-03-04T11:25:33.622Z,27248.00
2018-03-04T11:26:33.357Z,25928.00
2018-03-04T11:27:33.230Z,24768.00
2018-03-04T11:28:35.486Z,23672.00
2018-03-04T11:29:57.181Z,22568.00
2018-03-04T11:30:56.958Z,21848.00
2018-03-04T11:32:21.327Z,21120.00
2018-03-04T11:33:21.865Z,20928.00
2018-03-04T11:34:43.822Z,21576.00
2018-03-04T11:37:16.646Z,24008.00
2018-03-04T11:38:38.533Z,24952.00
2018-03-04T11:39:52.936Z,26424.00
2018-03-04T11:40:43.453Z,27920.00
2018-03-04T11:42:07.066Z,28744.00
2018-03-04T11:45:29.887Z,27840.00
2018-03-04T11:46:29.373Z,28408.00
2018-03-04T11:48:53.706Z,32504.00
2018-03-04T11:50:08.850Z,39984.00
2018-03-04T11:51:00.332Z,54736.00
2018-03-04T11:52:06.614Z,39904.00
2018-03-04T11:53:18.502Z,37184.00
2018-03-04T11:54:22.790Z,35224.00
2018-03-04T11:55:47.869Z,33712.00
2018-03-04T11:56:55.349Z,40872.00
2018-03-04T11:57:57.100Z,36872.00
2018-03-04T11:58:49.356Z,39784.00
2018-03-04T11:59:56.806Z,38648.00
2018-03-04T12:00:51.534Z,48880.00
2018-03-04T12:01:53.680Z,62152.00
2018-03-04T12:02:54.003Z,43320.00
2018-03-04T12:03:56.097Z,55640.00
2018-03-04T12:04:57.996Z,62040.00
2018-03-04T12:05:52.000Z,63040.00
2018-03-04T12:06:47.611Z,61744.00
2018-03-04T12:07:52.465Z,59576.00
2018-03-04T12:09:21.862Z,58992.00
2018-03-04T12:10:17.346Z,58192.00
2018-03-04T12:11:22.073Z,57536.00
2018-03-04T12:12:17.748Z,56576.00
2018-03-04T12:13:47.457Z,55448.00
2018-03-04T12:15:25.969Z,52080.00
2018-03-04T12:16:10.154Z,51168.00
2018-03-04T12:17:13.699Z,51832.00
2018-03-04T12:19:46.867Z,50944.00
2018-03-04T12:20:42.647Z,49152.00
2018-03-04T12:21:41.604Z,46088.00
2018-03-04T12:22:43.006Z,45272.00
2018-03-04T12:23:46.724Z,44840.00
2018-03-04T12:25:10.944Z,44736.00
2018-03-04T12:26:05.811Z,46240.00
2018-03-04T12:27:08.101Z,48288.00
2018-03-04T12:28:04.840Z,37784.00
2018-03-04T12:29:06.435Z,48008.00
2018-03-04T12:30:37.247Z,38360.00
2018-03-04T12:31:35.909Z,48960.00
2018-03-04T12:32:50.587Z,48104.00
2018-03-04T12:33:46.381Z,40536.00
2018-03-04T12:34:36.361Z,33768.00
2018-03-04T12:35:36.208Z,26816.00
2018-03-04T12:36:34.601Z,28504.00
2018-03-04T12:37:32.934Z,33208.00
2018-03-04T12:38:33.168Z,26144.00
2018-03-04T12:39:33.630Z,27504.00
2018-03-04T12:40:33.148Z,27184.00
2018-03-04T12:41:33.843Z,28744.00
2018-03-04T12:42:33.252Z,28360.00
2018-03-04T12:43:37.969Z,31176.00
2018-03-04T12:45:23.433Z,51960.00
2018-03-04T12:46:24.359Z,54152.00
2018-03-04T12:47:26.978Z,52904.00
2018-03-04T12:48:26.467Z,57808.00
2018-03-04T12:49:25.858Z,59336.00
2018-03-04T12:50:24.014Z,58080.00
2018-03-04T12:51:23.892Z,55288.00
2018-03-04T12:52:26.479Z,51800.00
2018-03-04T12:53:23.509Z,49144.00
2018-03-04T12:54:24.299Z,47288.00
2018-03-04T12:55:22.807Z,45336.00
2018-03-04T12:56:24.408Z,44352.00
2018-03-04T12:57:28.615Z,44200.00
2018-03-04T12:58:25.528Z,43920.00
2018-03-04T12:59:22.720Z,42904.00
2018-03-04T13:00:24.064Z,40040.00
2018-03-04T13:01:22.050Z,37864.00
2018-03-04T13:02:44.753Z,36536.00
2018-03-04T13:03:44.765Z,35360.00
2018-03-04T13:04:45.098Z,34928.00
2018-03-04T13:05:50.132Z,35232.00
2018-03-04T13:06:45.122Z,35576.00
2018-03-04T13:07:45.100Z,35128.00
2018-03-04T13:09:16.014Z,34336.00
2018-03-04T13:10:10.766Z,34728.00
2018-03-04T13:11:09.843Z,34656.00
2018-03-04T13:12:10.035Z,34096.00
2018-03-04T13:13:09.746Z,34024.00
2018-03-04T13:14:10.175Z,36144.00
2018-03-04T13:15:32.402Z,38080.00
2018-03-04T13:16:32.746Z,40008.00
2018-03-04T13:17:33.746Z,40520.00
2018-03-04T13:18:56.242Z,38048.00
2018-03-04T13:19:55.261Z,39104.00
2018-03-04T13:20:54.988Z,43112.00
2018-03-04T13:21:56.039Z,44048.00
2018-03-04T13:22:57.531Z,43568.00
2018-03-04T13:23:55.433Z,43616.00
2018-03-04T13:24:55.864Z,44400.00